Sandy Hook, Missouri
Current Conditions -  °F | °C
As of 7:54 PM on Thursday 20 Nov 2014 (Local Time) from KCOU Reporting Station
Clear Clear  
Wind Chill: 30°   Ceiling: Unl
Heat Index: 30°   Visibility: 10mi
Dew Point: 18°   Wind: 3mph
Humidity: 61%   Direction: 20°NNE
Pressure: 30.26"   Gusts: NA
Location:  38.7914°N, 92.4851°W
Report Text: KCOU 210154Z 02003KT 10SM CLR M01/M08 A3026 RMK AO2 SLP257 T10111078
Loading
Personal Weather Stations






























Interactive Weather Map New forecast layout! Learn more

10-Day Weather Forecast

Advertisements
Track Severe Weather on mobile